createdAt,value
2023-05-10T00:02:30.177Z,100128.03
2023-05-10T00:05:02.002Z,100139.94
2023-05-10T00:07:33.783Z,100140.53
2023-05-10T00:10:05.664Z,100131.03
2023-05-10T00:12:38.669Z,100118.63
2023-05-10T00:15:12.951Z,100126.09
2023-05-10T00:17:44.832Z,100121.13
2023-05-10T00:20:18.219Z,100105.38
2023-05-10T00:22:50.362Z,100102.88
2023-05-10T00:25:23.005Z,100110.75
2023-05-10T00:27:58.119Z,100110.75
2023-05-10T00:30:30.133Z,100106.63
2023-05-10T00:33:02.016Z,100106.38
2023-05-10T00:35:34.034Z,100096.63
2023-05-10T00:38:05.697Z,100103.28
2023-05-10T00:40:40.065Z,100101.00
2023-05-10T00:43:13.120Z,100102.00
2023-05-10T00:45:46.451Z,100093.09
2023-05-10T00:48:18.665Z,100090.59
2023-05-10T00:50:50.612Z,100087.88
2023-05-10T00:53:23.681Z,100094.25
2023-05-10T00:55:55.300Z,100085.34
2023-05-10T00:58:29.434Z,100082.50
2023-05-10T01:01:03.433Z,100079.94
2023-05-10T01:03:36.297Z,100078.28
2023-05-10T01:06:10.840Z,100081.78
2023-05-10T01:08:42.540Z,100074.91
2023-05-10T01:11:14.308Z,100079.47
2023-05-10T01:13:54.562Z,100073.06
2023-05-10T01:16:26.838Z,100073.22
2023-05-10T01:18:58.703Z,100067.63
2023-05-10T01:21:45.139Z,100064.69
2023-05-10T01:24:55.369Z,100065.66
2023-05-10T01:28:02.975Z,100064.66
2023-05-10T01:31:19.436Z,100072.28
2023-05-10T01:34:01.271Z,100067.31
2023-05-10T01:36:42.073Z,100069.00
2023-05-10T01:39:26.554Z,100069.41
2023-05-10T01:42:06.621Z,100075.34
2023-05-10T01:44:48.403Z,100082.19
2023-05-10T01:47:36.433Z,100080.03
2023-05-10T01:50:17.326Z,100077.19
2023-05-10T01:52:56.302Z,100076.28
2023-05-10T01:55:34.116Z,100071.06
2023-05-10T01:58:11.609Z,100070.16
2023-05-10T02:00:49.220Z,100072.50
2023-05-10T02:03:26.183Z,100077.91
2023-05-10T02:06:00.939Z,100076.69
2023-05-10T02:08:35.683Z,100072.00
2023-05-10T02:11:09.938Z,100076.75
2023-05-10T02:13:45.958Z,100071.81
2023-05-10T02:16:21.337Z,100071.19
2023-05-10T02:18:54.817Z,100070.09
2023-05-10T02:21:29.971Z,100065.81
2023-05-10T02:24:03.629Z,100064.97
2023-05-10T02:26:37.967Z,100067.00
2023-05-10T02:29:13.181Z,100070.34
2023-05-10T02:31:45.714Z,100068.28
2023-05-10T02:34:17.753Z,100067.00
2023-05-10T02:36:51.658Z,100065.38
2023-05-10T02:39:26.960Z,100064.09
2023-05-10T02:42:02.563Z,100071.16
2023-05-10T02:44:38.296Z,100064.50
2023-05-10T02:47:10.481Z,100064.72
2023-05-10T02:49:42.510Z,100060.13
2023-05-10T02:52:23.562Z,100062.75
2023-05-10T02:55:02.652Z,100062.75
2023-05-10T02:57:42.792Z,100051.97
2023-05-10T03:00:16.538Z,100054.00
2023-05-10T03:02:48.520Z,100053.63
2023-05-10T03:05:20.566Z,100052.13
2023-05-10T03:07:54.336Z,100055.66
2023-05-10T03:10:31.552Z,100053.41
2023-05-10T03:13:15.115Z,100059.75
2023-05-10T03:15:59.932Z,100060.53
2023-05-10T03:18:41.849Z,100056.19
2023-05-10T03:21:18.227Z,100055.63
2023-05-10T03:24:00.310Z,100058.31
2023-05-10T03:26:34.003Z,100053.34
2023-05-10T03:29:08.567Z,100051.25
2023-05-10T03:31:40.576Z,100057.81
2023-05-10T03:34:12.450Z,100059.44
2023-05-10T03:36:44.341Z,100052.84
2023-05-10T03:39:17.588Z,100057.06
2023-05-10T03:41:49.438Z,100060.13
2023-05-10T03:44:22.279Z,100066.91
2023-05-10T03:46:54.273Z,100062.28
2023-05-10T03:49:25.970Z,100064.03
2023-05-10T03:51:57.809Z,100061.16
2023-05-10T03:54:30.772Z,100059.09
2023-05-10T03:57:03.860Z,100053.50
2023-05-10T03:59:36.022Z,100051.38
2023-05-10T04:02:07.760Z,100058.41
2023-05-10T04:04:39.407Z,100054.06
2023-05-10T04:07:11.662Z,100049.91
2023-05-10T04:09:44.781Z,100054.00
2023-05-10T04:12:16.618Z,100047.78
2023-05-10T04:14:48.491Z,100053.16
2023-05-10T04:17:20.373Z,100050.75
2023-05-10T04:19:54.026Z,100051.63
2023-05-10T04:22:25.590Z,100055.25
2023-05-10T04:24:58.577Z,100057.28
2023-05-10T04:27:30.493Z,100059.22
2023-05-10T04:30:02.315Z,100059.22
2023-05-10T04:32:34.203Z,100066.75
2023-05-10T04:35:06.231Z,100058.84
2023-05-10T04:37:38.508Z,100060.31
2023-05-10T04:40:15.418Z,100063.44
2023-05-10T04:42:47.499Z,100060.63
2023-05-10T04:45:19.466Z,100067.06
2023-05-10T04:47:51.410Z,100062.16
2023-05-10T04:50:23.105Z,100061.72
2023-05-10T04:52:54.949Z,100064.22
2023-05-10T04:55:28.147Z,100066.91
2023-05-10T04:58:00.035Z,100059.69
2023-05-10T05:00:31.920Z,100064.97
2023-05-10T05:03:03.899Z,100077.38
2023-05-10T05:05:35.717Z,100089.16
2023-05-10T05:08:07.761Z,100088.09
2023-05-10T05:10:40.904Z,100088.09
2023-05-10T05:13:14.423Z,100088.88
2023-05-10T05:15:46.299Z,100089.03
2023-05-10T05:18:18.265Z,100096.69
2023-05-10T05:20:50.100Z,100105.75
2023-05-10T05:23:25.562Z,100114.19
2023-05-10T05:25:59.133Z,100119.56
2023-05-10T05:28:33.813Z,100125.66
2023-05-10T05:31:06.519Z,100122.63
2023-05-10T05:33:38.215Z,100118.88
2023-05-10T05:36:11.385Z,100121.41
2023-05-10T05:38:43.977Z,100125.56
2023-05-10T05:41:16.916Z,100127.22
2023-05-10T05:43:48.833Z,100124.53
2023-05-10T05:46:20.743Z,100131.59
2023-05-10T05:48:52.445Z,100133.59
2023-05-10T05:51:24.366Z,100130.09
2023-05-10T05:53:56.164Z,100138.44
2023-05-10T05:56:29.355Z,100137.97
2023-05-10T05:59:01.200Z,100134.28
2023-05-10T06:01:33.105Z,100140.91
2023-05-10T06:04:05.036Z,100143.34
2023-05-10T06:06:37.147Z,100148.97
2023-05-10T06:09:08.788Z,100158.06
2023-05-10T06:11:41.966Z,100169.44
2023-05-10T06:14:13.765Z,100167.75
2023-05-10T06:16:45.616Z,100162.22
2023-05-10T06:19:17.554Z,100176.09
2023-05-10T06:21:50.096Z,100173.03
2023-05-10T06:24:22.708Z,100177.41
2023-05-10T06:26:55.938Z,100166.28
2023-05-10T06:29:27.774Z,100177.03
2023-05-10T06:32:01.129Z,100176.63
2023-05-10T06:34:33.237Z,100165.91
2023-05-10T06:37:04.921Z,100172.09
2023-05-10T06:39:36.776Z,100172.56
2023-05-10T06:42:11.082Z,100181.25
2023-05-10T06:44:42.900Z,100185.63
2023-05-10T06:47:14.718Z,100184.78
2023-05-10T06:49:46.524Z,100186.44
2023-05-10T06:52:18.508Z,100181.09
2023-05-10T06:54:50.724Z,100188.22
2023-05-10T06:57:31.848Z,100185.31
2023-05-10T07:00:04.991Z,100186.09
2023-05-10T07:02:37.074Z,100187.59
2023-05-10T07:05:09.495Z,100195.53
2023-05-10T07:07:41.571Z,100194.78
2023-05-10T07:10:15.959Z,100199.34
2023-05-10T07:12:48.982Z,100198.13
2023-05-10T07:15:20.660Z,100197.75
2023-05-10T07:17:52.986Z,100206.44
2023-05-10T07:20:25.138Z,100208.94
2023-05-10T07:22:56.925Z,100207.75
2023-05-10T07:25:28.774Z,100212.72
2023-05-10T07:28:01.970Z,100216.72
2023-05-10T07:30:33.849Z,100217.38
2023-05-10T07:33:05.805Z,100216.78
2023-05-10T07:35:37.787Z,100223.66
2023-05-10T07:38:09.464Z,100223.47
2023-05-10T07:40:41.287Z,100221.22
2023-05-10T07:43:14.507Z,100222.25
2023-05-10T07:45:49.752Z,100222.06
2023-05-10T07:48:21.562Z,100225.97
2023-05-10T07:50:53.522Z,100224.94
2023-05-10T07:53:28.110Z,100225.00
2023-05-10T07:56:01.100Z,100225.00
2023-05-10T07:58:34.115Z,100229.56
2023-05-10T08:01:07.707Z,100238.66
2023-05-10T08:03:39.781Z,100234.13
2023-05-10T08:06:12.079Z,100235.44
2023-05-10T08:08:46.562Z,100246.72
2023-05-10T08:11:18.453Z,100249.25
2023-05-10T08:13:53.049Z,100250.53
2023-05-10T08:16:27.183Z,100263.31
2023-05-10T08:18:58.931Z,100259.22
2023-05-10T08:21:32.110Z,100256.25
2023-05-10T08:24:03.756Z,100274.06
2023-05-10T08:26:37.615Z,100268.31
2023-05-10T08:29:10.988Z,100276.81
2023-05-10T08:31:42.998Z,100275.28
2023-05-10T08:34:14.687Z,100278.59
2023-05-10T08:36:46.579Z,100278.13
2023-05-10T08:39:29.853Z,100286.19
2023-05-10T08:42:06.565Z,100290.19
2023-05-10T08:44:40.715Z,100290.19
2023-05-10T08:47:13.446Z,100290.84
2023-05-10T08:49:52.061Z,100293.97
2023-05-10T08:52:30.054Z,100295.63
2023-05-10T08:55:02.890Z,100303.16
2023-05-10T08:57:37.737Z,100302.44
2023-05-10T09:00:14.177Z,100306.66
2023-05-10T09:02:47.786Z,100304.72
2023-05-10T09:05:21.242Z,100311.56
2023-05-10T09:07:55.050Z,100314.34
2023-05-10T09:10:29.727Z,100317.69
2023-05-10T09:13:04.171Z,100330.75
2023-05-10T09:15:37.354Z,100331.00
2023-05-10T09:18:10.754Z,100335.38
2023-05-10T09:20:43.167Z,100333.75
2023-05-10T09:23:15.064Z,100337.13
2023-05-10T09:25:48.012Z,100341.50
2023-05-10T09:28:21.416Z,100346.47
2023-05-10T09:30:59.169Z,100349.19
2023-05-10T09:33:45.399Z,100353.50
2023-05-10T09:36:19.504Z,100351.88
2023-05-10T09:38:53.875Z,100360.09
2023-05-10T09:41:27.637Z,100358.34
2023-05-10T09:44:01.503Z,100366.81
2023-05-10T09:46:39.009Z,100372.94
2023-05-10T09:49:16.234Z,100368.56
2023-05-10T09:51:47.837Z,100374.34
2023-05-10T09:54:21.975Z,100376.66
2023-05-10T09:56:53.643Z,100394.44
2023-05-10T09:59:27.075Z,100386.31
2023-05-10T10:02:03.132Z,100398.06
2023-05-10T10:04:40.891Z,100396.97
2023-05-10T10:07:12.817Z,100397.22
2023-05-10T10:09:44.605Z,100396.78
2023-05-10T10:12:16.454Z,100399.19
2023-05-10T10:14:55.447Z,100400.47
2023-05-10T10:17:32.711Z,100405.13
2023-05-10T10:20:08.734Z,100408.91
2023-05-10T10:22:45.635Z,100412.22
2023-05-10T10:25:22.706Z,100412.31
2023-05-10T10:28:13.106Z,100416.28
2023-05-10T10:30:52.379Z,100414.91
2023-05-10T10:33:46.262Z,100414.13
2023-05-10T10:36:20.911Z,100419.34
2023-05-10T10:39:10.841Z,100414.59
2023-05-10T10:41:51.566Z,100417.50
2023-05-10T10:44:39.020Z,100419.81
2023-05-10T10:47:34.017Z,100420.06
2023-05-10T10:50:13.840Z,100419.69
2023-05-10T10:52:50.342Z,100421.34
2023-05-10T10:55:25.878Z,100412.88
2023-05-10T10:58:03.150Z,100421.72
2023-05-10T11:00:37.170Z,100424.63
2023-05-10T11:03:14.401Z,100425.72
2023-05-10T11:05:49.886Z,100420.41
2023-05-10T11:08:28.196Z,100419.84
2023-05-10T11:11:10.161Z,100426.50
2023-05-10T11:13:49.225Z,100422.84
2023-05-10T11:16:25.686Z,100425.75
2023-05-10T11:19:04.589Z,100425.81
2023-05-10T11:21:49.581Z,100428.56
2023-05-10T11:24:24.755Z,100433.22
2023-05-10T11:26:58.175Z,100426.44
2023-05-10T11:29:29.812Z,100428.34
2023-05-10T11:32:05.568Z,100433.59
2023-05-10T11:34:37.884Z,100429.91
2023-05-10T11:37:10.909Z,100432.84
2023-05-10T11:39:48.138Z,100428.06
2023-05-10T11:42:19.759Z,100432.44
2023-05-10T11:44:52.214Z,100433.34
2023-05-10T11:47:24.207Z,100434.84
2023-05-10T11:49:59.026Z,100433.44
2023-05-10T11:52:37.253Z,100433.47
2023-05-10T11:55:10.434Z,100435.59
2023-05-10T11:57:43.509Z,100435.66
2023-05-10T12:00:16.915Z,100442.53
2023-05-10T12:02:49.211Z,100441.53
2023-05-10T12:05:21.896Z,100440.69
2023-05-10T12:07:54.914Z,100443.66
2023-05-10T12:10:36.635Z,100442.00
2023-05-10T12:13:12.576Z,100444.13
2023-05-10T12:15:44.302Z,100439.34
2023-05-10T12:18:16.762Z,100447.53
2023-05-10T12:20:48.660Z,100440.50
2023-05-10T12:23:21.883Z,100445.97
2023-05-10T12:25:54.949Z,100444.38
2023-05-10T12:28:26.842Z,100445.47
2023-05-10T12:31:01.445Z,100447.97
2023-05-10T12:33:42.531Z,100437.25
2023-05-10T12:36:16.220Z,100441.63
2023-05-10T12:38:50.862Z,100444.16
2023-05-10T12:41:23.465Z,100446.03
2023-05-10T12:43:55.147Z,100453.72
2023-05-10T12:46:28.711Z,100450.84
2023-05-10T12:49:08.533Z,100452.72
2023-05-10T12:51:41.634Z,100448.81
2023-05-10T12:54:15.086Z,100460.66
2023-05-10T12:56:47.643Z,100458.81
2023-05-10T12:59:19.478Z,100465.50
2023-05-10T13:01:51.425Z,100469.22
2023-05-10T13:04:23.303Z,100471.31
2023-05-10T13:06:57.029Z,100464.22
2023-05-10T13:09:31.267Z,100470.47
2023-05-10T13:12:02.907Z,100474.00
2023-05-10T13:14:35.787Z,100475.03
2023-05-10T13:17:08.127Z,100470.88
2023-05-10T13:19:39.828Z,100476.06
2023-05-10T13:22:11.688Z,100471.31
2023-05-10T13:24:45.180Z,100473.19
2023-05-10T13:27:17.003Z,100465.06
2023-05-10T13:29:49.254Z,100468.75
2023-05-10T13:32:21.219Z,100470.47
2023-05-10T13:34:53.318Z,100472.75
2023-05-10T13:37:25.119Z,100477.34
2023-05-10T13:39:58.092Z,100477.16
2023-05-10T13:42:30.225Z,100467.38
2023-05-10T13:45:02.511Z,100467.38
2023-05-10T13:47:34.136Z,100475.69
2023-05-10T13:50:06.104Z,100476.13
2023-05-10T13:52:38.295Z,100470.69
2023-05-10T13:55:13.398Z,100470.47
2023-05-10T13:57:44.947Z,100470.06
2023-05-10T14:00:19.229Z,100473.00
2023-05-10T14:02:51.435Z,100469.25
2023-05-10T14:05:26.291Z,100477.16
2023-05-10T14:07:58.433Z,100479.00
2023-05-10T14:10:31.471Z,100476.53
2023-05-10T14:13:03.577Z,100466.75
2023-05-10T14:15:35.205Z,100468.00
2023-05-10T14:18:07.174Z,100475.88
2023-05-10T14:20:39.037Z,100466.72
2023-05-10T14:23:12.009Z,100475.06
2023-05-10T14:25:45.690Z,100471.31
2023-05-10T14:28:18.231Z,100468.00
2023-05-10T14:30:49.880Z,100484.22
2023-05-10T14:33:22.844Z,100478.59
2023-05-10T14:35:57.633Z,100484.41
2023-05-10T14:38:29.716Z,100479.84
2023-05-10T14:41:03.048Z,100490.47
2023-05-10T14:43:34.870Z,100485.25
2023-05-10T14:46:06.808Z,100497.13
2023-05-10T14:48:38.612Z,100490.88
2023-05-10T14:51:10.535Z,100504.19
2023-05-10T14:53:42.320Z,100509.38
2023-05-10T14:56:15.374Z,100507.28
2023-05-10T14:58:47.255Z,100508.31
2023-05-10T15:01:19.140Z,100509.09
2023-05-10T15:03:51.645Z,100512.00
2023-05-10T15:06:36.081Z,100512.81
2023-05-10T15:09:08.783Z,100513.84
2023-05-10T15:11:41.907Z,100515.28
2023-05-10T15:14:13.770Z,100521.50
2023-05-10T15:16:45.613Z,100521.69
2023-05-10T15:19:17.453Z,100514.63
2023-05-10T15:21:49.819Z,100517.34
2023-05-10T15:24:21.625Z,100520.88
2023-05-10T15:26:54.897Z,100515.41
2023-05-10T15:29:26.794Z,100521.22
2023-05-10T15:32:00.033Z,100520.78
2023-05-10T15:34:33.760Z,100520.00
2023-05-10T15:37:07.162Z,100528.47
2023-05-10T15:39:39.334Z,100527.66
2023-05-10T15:42:13.771Z,100532.22
2023-05-10T15:44:45.947Z,100531.78
2023-05-10T15:47:17.711Z,100532.16
2023-05-10T15:49:49.319Z,100536.50
2023-05-10T15:52:22.024Z,100535.69
2023-05-10T15:54:53.809Z,100540.47
2023-05-10T15:57:26.985Z,100545.00
2023-05-10T15:59:58.887Z,100552.50
2023-05-10T16:02:30.552Z,100550.41
2023-05-10T16:05:02.227Z,100554.13
2023-05-10T16:07:34.494Z,100553.34
2023-05-10T16:10:07.394Z,100558.50
2023-05-10T16:12:41.725Z,100559.53
2023-05-10T16:15:15.152Z,100568.25
2023-05-10T16:17:47.013Z,100569.91
2023-05-10T16:20:18.803Z,100571.50
2023-05-10T16:22:50.809Z,100569.59
2023-05-10T16:25:22.583Z,100572.75
2023-05-10T16:27:56.310Z,100578.13
2023-05-10T16:30:30.287Z,100582.88
2023-05-10T16:33:02.900Z,100588.09
2023-05-10T16:35:34.788Z,100589.34
2023-05-10T16:38:06.839Z,100593.06
2023-05-10T16:40:38.513Z,100597.00
2023-05-10T16:43:11.962Z,100589.06
2023-05-10T16:45:43.787Z,100597.56
2023-05-10T16:48:15.525Z,100591.72
2023-05-10T16:50:48.667Z,100601.69
2023-05-10T16:53:21.240Z,100590.06
2023-05-10T16:55:53.022Z,100595.00
2023-05-10T16:58:26.343Z,100594.78
2023-05-10T17:00:58.228Z,100597.00
2023-05-10T17:03:30.371Z,100589.47
2023-05-10T17:06:02.359Z,100593.84
2023-05-10T17:08:33.966Z,100596.16
2023-05-10T17:11:07.292Z,100607.34
2023-05-10T17:13:40.277Z,100604.25
2023-05-10T17:16:12.495Z,100608.38
2023-05-10T17:18:46.874Z,100605.28
2023-05-10T17:21:18.522Z,100616.28
2023-05-10T17:23:50.361Z,100615.44
2023-05-10T17:26:22.279Z,100610.16
2023-05-10T17:28:56.279Z,100622.00
2023-05-10T17:31:28.133Z,100611.22
2023-05-10T17:34:00.214Z,100616.78
2023-05-10T17:36:32.380Z,100626.56
2023-05-10T17:39:04.028Z,100622.00
2023-05-10T17:41:35.853Z,100620.31
2023-05-10T17:44:08.912Z,100623.41
2023-05-10T17:46:40.610Z,100628.38
2023-05-10T17:49:13.903Z,100631.50
2023-05-10T17:51:47.960Z,100630.47
2023-05-10T17:54:19.904Z,100635.84
2023-05-10T17:56:51.926Z,100629.00
2023-05-10T17:59:24.904Z,100633.38
2023-05-10T18:01:56.770Z,100630.41
2023-05-10T18:04:28.731Z,100634.16
2023-05-10T18:07:02.060Z,100632.47
2023-05-10T18:09:34.154Z,100626.22
2023-05-10T18:12:06.957Z,100629.13
2023-05-10T18:14:41.572Z,100637.59
2023-05-10T18:17:13.818Z,100643.66
2023-05-10T18:19:45.774Z,100642.19
2023-05-10T18:22:17.623Z,100647.34
2023-05-10T18:24:49.498Z,100651.47
2023-05-10T18:27:21.306Z,100648.97
2023-05-10T18:29:54.406Z,100653.97
2023-05-10T18:32:27.987Z,100649.38
2023-05-10T18:35:00.228Z,100660.31
2023-05-10T18:37:32.321Z,100660.50
2023-05-10T18:40:06.299Z,100658.84
2023-05-10T18:42:37.979Z,100667.13
2023-05-10T18:45:12.449Z,100665.81
2023-05-10T18:47:44.168Z,100668.72
2023-05-10T18:50:17.058Z,100666.59
2023-05-10T18:52:48.889Z,100676.53
2023-05-10T18:55:20.627Z,100673.22
2023-05-10T18:57:52.752Z,100673.22
2023-05-10T19:00:26.619Z,100682.53
2023-05-10T19:02:58.597Z,100682.69
2023-05-10T19:05:31.619Z,100682.06
2023-05-10T19:08:03.503Z,100686.78
2023-05-10T19:10:35.478Z,100688.84
2023-05-10T19:13:07.313Z,100697.13
2023-05-10T19:15:40.822Z,100691.25
2023-05-10T19:18:12.781Z,100689.63
2023-05-10T19:20:45.184Z,100694.34
2023-05-10T19:23:17.090Z,100693.69
2023-05-10T19:25:49.074Z,100699.56
2023-05-10T19:28:20.737Z,100701.59
2023-05-10T19:30:54.070Z,100700.78
2023-05-10T19:33:26.466Z,100703.63
2023-05-10T19:35:58.358Z,100696.94
2023-05-10T19:38:31.197Z,100705.03
2023-05-10T19:41:03.688Z,100709.31
2023-05-10T19:43:38.381Z,100710.34
2023-05-10T19:46:12.737Z,100703.00
2023-05-10T19:48:48.651Z,100706.72
2023-05-10T19:51:21.808Z,100698.63
2023-05-10T19:53:53.410Z,100704.50
2023-05-10T19:56:26.904Z,100698.09
2023-05-10T19:58:59.361Z,100702.34
2023-05-10T20:01:33.041Z,100706.25
2023-05-10T20:04:04.794Z,100703.31
2023-05-10T20:06:36.571Z,100707.00
2023-05-10T20:09:08.481Z,100708.22
2023-05-10T20:11:40.006Z,100710.72
2023-05-10T20:14:11.828Z,100713.22
2023-05-10T20:16:45.110Z,100721.69
2023-05-10T20:19:17.177Z,100722.69
2023-05-10T20:21:49.058Z,100726.03
2023-05-10T20:24:20.858Z,100723.53
2023-05-10T20:26:52.824Z,100720.56
2023-05-10T20:29:26.106Z,100721.91
2023-05-10T20:31:59.184Z,100720.81
2023-05-10T20:34:30.943Z,100718.56
2023-05-10T20:37:02.961Z,100721.28
2023-05-10T20:39:34.779Z,100723.31
2023-05-10T20:42:06.652Z,100728.25
2023-05-10T20:44:38.523Z,100723.88
2023-05-10T20:47:11.692Z,100725.72
2023-05-10T20:49:43.575Z,100729.25
2023-05-10T20:52:15.626Z,100734.81
2023-05-10T20:54:47.461Z,100726.09
2023-05-10T20:57:19.371Z,100727.31
2023-05-10T20:59:52.182Z,100723.94
2023-05-10T21:02:25.262Z,100734.06
2023-05-10T21:04:58.222Z,100726.16
2023-05-10T21:07:32.283Z,100723.28
2023-05-10T21:10:04.116Z,100729.69
2023-05-10T21:12:35.750Z,100734.13
2023-05-10T21:15:09.252Z,100721.50
2023-05-10T21:17:42.343Z,100735.81
2023-05-10T21:20:16.886Z,100726.25
2023-05-10T21:22:49.049Z,100732.47
2023-05-10T21:25:20.790Z,100729.13
2023-05-10T21:27:52.642Z,100729.13
2023-05-10T21:30:24.444Z,100732.81
2023-05-10T21:32:59.865Z,100731.16
2023-05-10T21:35:34.701Z,100727.81
2023-05-10T21:38:07.892Z,100722.63
2023-05-10T21:40:41.693Z,100722.78
2023-05-10T21:43:13.571Z,100724.09
2023-05-10T21:45:45.531Z,100730.13
2023-05-10T21:48:18.698Z,100727.16
2023-05-10T21:50:50.499Z,100726.53
2023-05-10T21:53:22.592Z,100734.94
2023-05-10T21:55:55.170Z,100726.06
2023-05-10T21:58:28.600Z,100727.22
2023-05-10T22:01:00.620Z,100729.66
2023-05-10T22:03:33.718Z,100729.28
2023-05-10T22:06:05.767Z,100729.44
2023-05-10T22:08:37.586Z,100730.13
2023-05-10T22:11:09.446Z,100725.59
2023-05-10T22:13:41.328Z,100730.13
2023-05-10T22:16:13.199Z,100730.28
2023-05-10T22:18:46.225Z,100732.34
2023-05-10T22:21:18.018Z,100733.34
2023-05-10T22:23:49.652Z,100735.03
2023-05-10T22:26:21.509Z,100728.59
2023-05-10T22:28:53.339Z,100731.66
2023-05-10T22:31:25.249Z,100727.31
2023-05-10T22:33:58.328Z,100734.72
2023-05-10T22:36:30.579Z,100743.53
2023-05-10T22:39:02.258Z,100736.34
2023-05-10T22:41:34.334Z,100740.88
2023-05-10T22:44:06.446Z,100738.56
2023-05-10T22:46:39.334Z,100737.56
2023-05-10T22:49:12.572Z,100746.16
2023-05-10T22:51:44.379Z,100748.47
2023-05-10T22:54:16.369Z,100744.63
2023-05-10T22:56:48.221Z,100746.63
2023-05-10T22:59:20.718Z,100744.63
2023-05-10T23:01:52.432Z,100744.63
2023-05-10T23:04:25.900Z,100742.28
2023-05-10T23:06:57.867Z,100750.84
2023-05-10T23:09:29.738Z,100759.72
2023-05-10T23:12:01.573Z,100748.94
2023-05-10T23:14:33.482Z,100770.47
2023-05-10T23:17:05.370Z,100766.13
2023-05-10T23:19:38.348Z,100761.41
2023-05-10T23:22:10.804Z,100763.44
2023-05-10T23:24:42.510Z,100766.28
2023-05-10T23:27:14.528Z,100774.00
2023-05-10T23:29:47.019Z,100769.00
2023-05-10T23:32:19.000Z,100769.84
2023-05-10T23:34:53.176Z,100767.31
2023-05-10T23:37:24.754Z,100764.81
2023-05-10T23:39:56.436Z,100772.69
2023-05-10T23:42:28.324Z,100768.16
2023-05-10T23:45:00.604Z,100764.81
2023-05-10T23:47:32.521Z,100764.81
2023-05-10T23:50:06.453Z,100764.81
2023-05-10T23:52:38.263Z,100771.19
2023-05-10T23:55:12.090Z,100765.19
2023-05-10T23:57:43.943Z,100773.25
